sensor_id;sensor_type;location;lat;lon;timestamp;P1;durP1;ratioP1;P2;durP2;ratioP2
70725;SDS011;58304;53.104;6.022;2022-08-19T00:00:28;9.85;;;5.30;;
70725;SDS011;58304;53.104;6.022;2022-08-19T00:02:54;10.55;;;4.65;;
70725;SDS011;58304;53.104;6.022;2022-08-19T00:05:20;7.55;;;5.22;;
70725;SDS011;58304;53.104;6.022;2022-08-19T00:07:46;8.32;;;4.47;;
70725;SDS011;58304;53.104;6.022;2022-08-19T00:10:14;8.38;;;4.72;;
70725;SDS011;58304;53.104;6.022;2022-08-19T00:12:40;9.18;;;4.70;;
70725;SDS011;58304;53.104;6.022;2022-08-19T00:15:10;10.50;;;5.50;;
70725;SDS011;58304;53.104;6.022;2022-08-19T00:17:41;7.88;;;4.40;;
70725;SDS011;58304;53.104;6.022;2022-08-19T00:20:09;7.55;;;4.60;;
70725;SDS011;58304;53.104;6.022;2022-08-19T00:22:38;9.43;;;4.88;;
70725;SDS011;58304;53.104;6.022;2022-08-19T00:25:06;8.10;;;4.90;;
70725;SDS011;58304;53.104;6.022;2022-08-19T00:27:32;7.97;;;4.65;;
70725;SDS011;58304;53.104;6.022;2022-08-19T00:29:58;8.55;;;5.25;;
70725;SDS011;58304;53.104;6.022;2022-08-19T00:32:25;9.15;;;5.13;;
70725;SDS011;58304;53.104;6.022;2022-08-19T00:34:51;7.85;;;5.00;;
70725;SDS011;58304;53.104;6.022;2022-08-19T00:37:22;9.18;;;5.15;;
70725;SDS011;58304;53.104;6.022;2022-08-19T00:39:51;7.20;;;4.88;;
70725;SDS011;58304;53.104;6.022;2022-08-19T00:42:19;9.73;;;5.55;;
70725;SDS011;58304;53.104;6.022;2022-08-19T00:44:45;11.05;;;5.82;;
70725;SDS011;58304;53.104;6.022;2022-08-19T00:47:12;9.90;;;5.88;;
70725;SDS011;58304;53.104;6.022;2022-08-19T00:49:41;8.77;;;5.45;;
70725;SDS011;58304;53.104;6.022;2022-08-19T00:52:14;8.73;;;5.25;;
70725;SDS011;58304;53.104;6.022;2022-08-19T00:54:42;9.90;;;5.72;;
70725;SDS011;58304;53.104;6.022;2022-08-19T00:57:09;9.93;;;5.45;;
70725;SDS011;58304;53.104;6.022;2022-08-19T00:59:40;8.98;;;5.10;;
70725;SDS011;58304;53.104;6.022;2022-08-19T01:02:07;9.05;;;5.40;;
70725;SDS011;58304;53.104;6.022;2022-08-19T01:04:33;9.57;;;5.82;;
70725;SDS011;58304;53.104;6.022;2022-08-19T01:06:58;9.48;;;5.60;;
70725;SDS011;58304;53.104;6.022;2022-08-19T01:09:27;8.65;;;5.47;;
70725;SDS011;58304;53.104;6.022;2022-08-19T01:11:55;10.88;;;5.60;;
70725;SDS011;58304;53.104;6.022;2022-08-19T01:14:21;9.18;;;5.82;;
70725;SDS011;58304;53.104;6.022;2022-08-19T01:16:48;9.68;;;5.88;;
70725;SDS011;58304;53.104;6.022;2022-08-19T01:19:21;11.82;;;5.90;;
70725;SDS011;58304;53.104;6.022;2022-08-19T01:21:57;9.73;;;5.68;;
70725;SDS011;58304;53.104;6.022;2022-08-19T01:24:35;8.10;;;5.35;;
70725;SDS011;58304;53.104;6.022;2022-08-19T01:27:03;9.73;;;5.75;;
70725;SDS011;58304;53.104;6.022;2022-08-19T01:29:30;11.98;;;6.35;;
70725;SDS011;58304;53.104;6.022;2022-08-19T01:31:55;10.40;;;6.38;;
70725;SDS011;58304;53.104;6.022;2022-08-19T01:34:22;10.70;;;5.88;;
70725;SDS011;58304;53.104;6.022;2022-08-19T01:36:48;9.18;;;5.40;;
70725;SDS011;58304;53.104;6.022;2022-08-19T01:39:16;8.57;;;5.65;;
70725;SDS011;58304;53.104;6.022;2022-08-19T01:41:46;10.02;;;5.70;;
70725;SDS011;58304;53.104;6.022;2022-08-19T01:44:13;9.32;;;5.80;;
70725;SDS011;58304;53.104;6.022;2022-08-19T01:46:38;11.02;;;6.82;;
70725;SDS011;58304;53.104;6.022;2022-08-19T01:49:05;11.95;;;6.95;;
70725;SDS011;58304;53.104;6.022;2022-08-19T01:51:32;11.00;;;6.75;;
70725;SDS011;58304;53.104;6.022;2022-08-19T01:53:58;11.38;;;7.18;;
70725;SDS011;58304;53.104;6.022;2022-08-19T01:56:24;12.48;;;6.70;;
70725;SDS011;58304;53.104;6.022;2022-08-19T01:58:52;13.50;;;7.20;;
70725;SDS011;58304;53.104;6.022;2022-08-19T02:01:21;12.45;;;6.78;;
70725;SDS011;58304;53.104;6.022;2022-08-19T02:03:46;13.70;;;7.20;;
70725;SDS011;58304;53.104;6.022;2022-08-19T02:06:12;11.02;;;6.85;;
70725;SDS011;58304;53.104;6.022;2022-08-19T02:08:38;12.05;;;6.97;;
70725;SDS011;58304;53.104;6.022;2022-08-19T02:11:05;15.50;;;7.80;;
70725;SDS011;58304;53.104;6.022;2022-08-19T02:13:31;10.98;;;6.60;;
70725;SDS011;58304;53.104;6.022;2022-08-19T02:15:59;11.23;;;6.30;;
70725;SDS011;58304;53.104;6.022;2022-08-19T02:18:25;10.25;;;6.15;;
70725;SDS011;58304;53.104;6.022;2022-08-19T02:20:52;9.15;;;6.03;;
70725;SDS011;58304;53.104;6.022;2022-08-19T02:23:18;7.18;;;5.05;;
70725;SDS011;58304;53.104;6.022;2022-08-19T02:25:44;6.18;;;3.70;;
70725;SDS011;58304;53.104;6.022;2022-08-19T02:28:12;5.78;;;3.58;;
70725;SDS011;58304;53.104;6.022;2022-08-19T02:30:38;6.68;;;4.13;;
70725;SDS011;58304;53.104;6.022;2022-08-19T02:33:06;8.90;;;4.93;;
70725;SDS011;58304;53.104;6.022;2022-08-19T02:35:31;8.45;;;4.40;;
70725;SDS011;58304;53.104;6.022;2022-08-19T02:37:57;9.18;;;4.50;;
70725;SDS011;58304;53.104;6.022;2022-08-19T02:40:47;7.72;;;4.53;;
70725;SDS011;58304;53.104;6.022;2022-08-19T02:43:15;9.05;;;5.00;;
70725;SDS011;58304;53.104;6.022;2022-08-19T02:45:40;7.03;;;4.53;;
70725;SDS011;58304;53.104;6.022;2022-08-19T02:48:06;8.60;;;5.00;;
70725;SDS011;58304;53.104;6.022;2022-08-19T02:50:33;7.18;;;4.57;;
70725;SDS011;58304;53.104;6.022;2022-08-19T02:53:02;10.40;;;6.00;;
70725;SDS011;58304;53.104;6.022;2022-08-19T02:55:32;8.70;;;5.45;;
70725;SDS011;58304;53.104;6.022;2022-08-19T02:57:57;11.68;;;6.30;;
70725;SDS011;58304;53.104;6.022;2022-08-19T03:00:24;14.02;;;6.88;;
70725;SDS011;58304;53.104;6.022;2022-08-19T03:02:51;10.40;;;5.85;;
70725;SDS011;58304;53.104;6.022;2022-08-19T03:05:17;13.65;;;5.88;;
70725;SDS011;58304;53.104;6.022;2022-08-19T03:07:43;13.70;;;6.05;;
70725;SDS011;58304;53.104;6.022;2022-08-19T03:10:09;11.88;;;6.30;;
70725;SDS011;58304;53.104;6.022;2022-08-19T03:12:37;12.68;;;6.18;;
70725;SDS011;58304;53.104;6.022;2022-08-19T03:15:07;12.73;;;6.60;;
70725;SDS011;58304;53.104;6.022;2022-08-19T03:17:34;14.77;;;6.63;;
70725;SDS011;58304;53.104;6.022;2022-08-19T03:20:00;11.38;;;6.15;;
70725;SDS011;58304;53.104;6.022;2022-08-19T03:22:26;12.48;;;6.70;;
70725;SDS011;58304;53.104;6.022;2022-08-19T03:24:52;11.48;;;5.55;;
70725;SDS011;58304;53.104;6.022;2022-08-19T03:27:18;8.95;;;5.30;;
70725;SDS011;58304;53.104;6.022;2022-08-19T03:29:44;11.25;;;5.63;;
70725;SDS011;58304;53.104;6.022;2022-08-19T03:32:10;10.95;;;6.90;;
70725;SDS011;58304;53.104;6.022;2022-08-19T03:34:38;13.32;;;7.05;;
70725;SDS011;58304;53.104;6.022;2022-08-19T03:37:05;12.70;;;7.65;;
70725;SDS011;58304;53.104;6.022;2022-08-19T03:39:33;14.88;;;7.40;;
70725;SDS011;58304;53.104;6.022;2022-08-19T03:42:00;12.00;;;7.25;;
70725;SDS011;58304;53.104;6.022;2022-08-19T03:44:27;11.73;;;7.07;;
70725;SDS011;58304;53.104;6.022;2022-08-19T03:46:55;11.40;;;6.75;;
70725;SDS011;58304;53.104;6.022;2022-08-19T03:49:23;11.40;;;6.68;;
70725;SDS011;58304;53.104;6.022;2022-08-19T03:51:52;11.18;;;6.45;;
70725;SDS011;58304;53.104;6.022;2022-08-19T03:54:19;11.35;;;6.72;;
70725;SDS011;58304;53.104;6.022;2022-08-19T03:56:48;10.15;;;6.28;;
70725;SDS011;58304;53.104;6.022;2022-08-19T03:59:19;11.43;;;6.07;;
70725;SDS011;58304;53.104;6.022;2022-08-19T04:01:50;10.70;;;6.50;;
70725;SDS011;58304;53.104;6.022;2022-08-19T04:04:16;12.30;;;6.72;;
70725;SDS011;58304;53.104;6.022;2022-08-19T04:06:42;16.30;;;7.22;;
70725;SDS011;58304;53.104;6.022;2022-08-19T04:09:09;11.02;;;6.65;;
70725;SDS011;58304;53.104;6.022;2022-08-19T04:11:42;10.55;;;6.72;;
70725;SDS011;58304;53.104;6.022;2022-08-19T04:14:12;9.70;;;6.32;;
70725;SDS011;58304;53.104;6.022;2022-08-19T04:16:40;12.82;;;6.53;;
70725;SDS011;58304;53.104;6.022;2022-08-19T04:19:06;9.90;;;6.40;;
70725;SDS011;58304;53.104;6.022;2022-08-19T04:21:32;11.30;;;6.75;;
70725;SDS011;58304;53.104;6.022;2022-08-19T04:23:58;12.23;;;6.35;;
70725;SDS011;58304;53.104;6.022;2022-08-19T04:26:26;10.85;;;6.43;;
70725;SDS011;58304;53.104;6.022;2022-08-19T04:28:53;9.10;;;5.97;;
70725;SDS011;58304;53.104;6.022;2022-08-19T04:31:24;10.40;;;5.95;;
70725;SDS011;58304;53.104;6.022;2022-08-19T04:33:52;9.98;;;5.95;;
70725;SDS011;58304;53.104;6.022;2022-08-19T04:36:37;8.88;;;5.45;;
70725;SDS011;58304;53.104;6.022;2022-08-19T04:39:10;8.35;;;5.80;;
70725;SDS011;58304;53.104;6.022;2022-08-19T04:41:39;9.95;;;6.18;;
70725;SDS011;58304;53.104;6.022;2022-08-19T04:44:23;9.10;;;6.03;;
70725;SDS011;58304;53.104;6.022;2022-08-19T04:46:49;8.80;;;5.55;;
70725;SDS011;58304;53.104;6.022;2022-08-19T04:49:15;9.27;;;6.03;;
70725;SDS011;58304;53.104;6.022;2022-08-19T04:51:43;9.30;;;5.47;;
70725;SDS011;58304;53.104;6.022;2022-08-19T04:54:11;8.80;;;5.65;;
70725;SDS011;58304;53.104;6.022;2022-08-19T04:56:38;11.25;;;6.00;;
70725;SDS011;58304;53.104;6.022;2022-08-19T04:59:04;11.30;;;6.63;;
70725;SDS011;58304;53.104;6.022;2022-08-19T05:01:31;13.02;;;7.13;;
70725;SDS011;58304;53.104;6.022;2022-08-19T05:04:01;13.77;;;7.60;;
70725;SDS011;58304;53.104;6.022;2022-08-19T05:06:29;15.80;;;7.43;;
70725;SDS011;58304;53.104;6.022;2022-08-19T05:08:57;14.60;;;7.47;;
70725;SDS011;58304;53.104;6.022;2022-08-19T05:11:25;13.95;;;7.57;;
70725;SDS011;58304;53.104;6.022;2022-08-19T05:13:53;13.60;;;7.25;;
70725;SDS011;58304;53.104;6.022;2022-08-19T05:16:20;15.30;;;7.90;;
70725;SDS011;58304;53.104;6.022;2022-08-19T05:18:47;14.27;;;8.02;;
70725;SDS011;58304;53.104;6.022;2022-08-19T05:21:46;13.45;;;7.45;;
70725;SDS011;58304;53.104;6.022;2022-08-19T05:24:30;12.25;;;7.55;;
70725;SDS011;58304;53.104;6.022;2022-08-19T05:26:58;15.32;;;7.75;;
70725;SDS011;58304;53.104;6.022;2022-08-19T05:29:25;11.60;;;7.47;;
70725;SDS011;58304;53.104;6.022;2022-08-19T05:31:52;13.98;;;7.97;;
70725;SDS011;58304;53.104;6.022;2022-08-19T05:34:20;15.02;;;8.07;;
70725;SDS011;58304;53.104;6.022;2022-08-19T05:36:49;13.32;;;8.10;;
70725;SDS011;58304;53.104;6.022;2022-08-19T05:39:20;14.98;;;8.40;;
70725;SDS011;58304;53.104;6.022;2022-08-19T05:41:48;13.77;;;8.70;;
70725;SDS011;58304;53.104;6.022;2022-08-19T05:46:51;14.85;;;8.00;;
70725;SDS011;58304;53.104;6.022;2022-08-19T05:49:23;16.30;;;9.23;;
70725;SDS011;58304;53.104;6.022;2022-08-19T05:51:50;15.13;;;8.88;;
70725;SDS011;58304;53.104;6.022;2022-08-19T05:54:17;18.85;;;9.25;;
70725;SDS011;58304;53.104;6.022;2022-08-19T05:56:43;15.75;;;8.98;;
70725;SDS011;58304;53.104;6.022;2022-08-19T05:59:09;17.83;;;9.55;;
70725;SDS011;58304;53.104;6.022;2022-08-19T06:01:41;16.98;;;9.18;;
70725;SDS011;58304;53.104;6.022;2022-08-19T06:04:08;16.08;;;9.48;;
70725;SDS011;58304;53.104;6.022;2022-08-19T06:06:34;15.27;;;9.15;;
70725;SDS011;58304;53.104;6.022;2022-08-19T06:09:01;13.80;;;8.90;;
70725;SDS011;58304;53.104;6.022;2022-08-19T06:11:36;17.25;;;9.77;;
70725;SDS011;58304;53.104;6.022;2022-08-19T06:14:06;15.15;;;9.05;;
70725;SDS011;58304;53.104;6.022;2022-08-19T06:16:34;14.13;;;8.80;;
70725;SDS011;58304;53.104;6.022;2022-08-19T06:19:01;13.32;;;8.77;;
70725;SDS011;58304;53.104;6.022;2022-08-19T06:21:29;14.85;;;8.50;;
70725;SDS011;58304;53.104;6.022;2022-08-19T06:23:56;14.27;;;8.52;;
70725;SDS011;58304;53.104;6.022;2022-08-19T06:26:22;14.35;;;8.90;;
70725;SDS011;58304;53.104;6.022;2022-08-19T06:28:49;12.65;;;8.35;;
70725;SDS011;58304;53.104;6.022;2022-08-19T06:31:16;14.63;;;8.43;;
70725;SDS011;58304;53.104;6.022;2022-08-19T06:33:43;14.18;;;8.13;;
70725;SDS011;58304;53.104;6.022;2022-08-19T06:36:23;13.00;;;8.30;;
70725;SDS011;58304;53.104;6.022;2022-08-19T06:41:22;12.55;;;7.85;;
70725;SDS011;58304;53.104;6.022;2022-08-19T06:43:49;10.27;;;7.13;;
70725;SDS011;58304;53.104;6.022;2022-08-19T06:46:16;13.00;;;8.48;;
70725;SDS011;58304;53.104;6.022;2022-08-19T06:48:43;14.30;;;8.15;;
70725;SDS011;58304;53.104;6.022;2022-08-19T06:51:09;11.77;;;7.70;;
70725;SDS011;58304;53.104;6.022;2022-08-19T06:53:35;11.50;;;7.63;;
70725;SDS011;58304;53.104;6.022;2022-08-19T06:56:00;10.95;;;7.65;;
70725;SDS011;58304;53.104;6.022;2022-08-19T06:58:27;11.75;;;7.70;;
70725;SDS011;58304;53.104;6.022;2022-08-19T07:00:57;10.02;;;7.65;;
70725;SDS011;58304;53.104;6.022;2022-08-19T07:03:30;10.85;;;7.00;;
70725;SDS011;58304;53.104;6.022;2022-08-19T07:06:02;10.43;;;7.45;;
70725;SDS011;58304;53.104;6.022;2022-08-19T07:08:36;10.90;;;7.97;;
70725;SDS011;58304;53.104;6.022;2022-08-19T07:11:10;10.20;;;7.22;;
70725;SDS011;58304;53.104;6.022;2022-08-19T07:13:38;10.05;;;6.60;;
70725;SDS011;58304;53.104;6.022;2022-08-19T07:16:06;10.23;;;6.88;;
70725;SDS011;58304;53.104;6.022;2022-08-19T07:18:33;9.85;;;7.07;;
70725;SDS011;58304;53.104;6.022;2022-08-19T07:21:04;23.55;;;7.03;;
70725;SDS011;58304;53.104;6.022;2022-08-19T07:23:31;10.02;;;7.00;;
70725;SDS011;58304;53.104;6.022;2022-08-19T07:25:57;13.30;;;7.15;;
70725;SDS011;58304;53.104;6.022;2022-08-19T07:28:30;10.25;;;7.07;;
70725;SDS011;58304;53.104;6.022;2022-08-19T07:30:55;8.65;;;6.50;;
70725;SDS011;58304;53.104;6.022;2022-08-19T07:33:21;9.00;;;6.97;;
70725;SDS011;58304;53.104;6.022;2022-08-19T07:35:46;9.23;;;7.00;;
70725;SDS011;58304;53.104;6.022;2022-08-19T07:38:12;8.15;;;6.40;;
70725;SDS011;58304;53.104;6.022;2022-08-19T07:40:38;9.02;;;6.75;;
70725;SDS011;58304;53.104;6.022;2022-08-19T07:43:05;8.30;;;6.53;;
70725;SDS011;58304;53.104;6.022;2022-08-19T07:45:30;9.88;;;6.93;;
70725;SDS011;58304;53.104;6.022;2022-08-19T07:47:56;9.70;;;8.10;;
70725;SDS011;58304;53.104;6.022;2022-08-19T07:50:22;11.30;;;7.47;;
70725;SDS011;58304;53.104;6.022;2022-08-19T07:52:48;9.50;;;7.63;;
70725;SDS011;58304;53.104;6.022;2022-08-19T07:55:14;9.43;;;7.70;;
70725;SDS011;58304;53.104;6.022;2022-08-19T07:57:44;12.13;;;9.00;;
70725;SDS011;58304;53.104;6.022;2022-08-19T08:00:09;13.02;;;8.85;;
70725;SDS011;58304;53.104;6.022;2022-08-19T08:02:35;11.85;;;9.05;;
70725;SDS011;58304;53.104;6.022;2022-08-19T08:05:02;10.15;;;8.60;;
70725;SDS011;58304;53.104;6.022;2022-08-19T08:07:46;11.20;;;9.48;;
70725;SDS011;58304;53.104;6.022;2022-08-19T08:10:30;11.98;;;9.70;;
70725;SDS011;58304;53.104;6.022;2022-08-19T08:12:56;12.65;;;8.85;;
70725;SDS011;58304;53.104;6.022;2022-08-19T08:15:21;10.43;;;8.75;;
70725;SDS011;58304;53.104;6.022;2022-08-19T08:17:47;10.65;;;8.60;;
70725;SDS011;58304;53.104;6.022;2022-08-19T08:20:13;10.30;;;8.65;;
70725;SDS011;58304;53.104;6.022;2022-08-19T08:22:42;11.90;;;9.88;;
70725;SDS011;58304;53.104;6.022;2022-08-19T08:25:27;10.43;;;9.27;;
70725;SDS011;58304;53.104;6.022;2022-08-19T08:27:54;10.57;;;8.82;;
70725;SDS011;58304;53.104;6.022;2022-08-19T08:30:22;12.63;;;9.52;;
70725;SDS011;58304;53.104;6.022;2022-08-19T08:32:50;10.98;;;9.80;;
70725;SDS011;58304;53.104;6.022;2022-08-19T08:35:17;12.77;;;9.63;;
70725;SDS011;58304;53.104;6.022;2022-08-19T08:37:45;11.43;;;9.07;;
70725;SDS011;58304;53.104;6.022;2022-08-19T08:40:29;12.30;;;10.13;;
70725;SDS011;58304;53.104;6.022;2022-08-19T08:43:21;12.32;;;10.95;;
70725;SDS011;58304;53.104;6.022;2022-08-19T08:45:57;13.57;;;10.93;;
70725;SDS011;58304;53.104;6.022;2022-08-19T08:51:19;19.08;;;11.77;;
70725;SDS011;58304;53.104;6.022;2022-08-19T08:53:49;12.95;;;11.25;;
70725;SDS011;58304;53.104;6.022;2022-08-19T08:56:17;13.57;;;11.07;;
70725;SDS011;58304;53.104;6.022;2022-08-19T09:01:16;13.25;;;10.60;;
70725;SDS011;58304;53.104;6.022;2022-08-19T09:03:42;14.48;;;11.80;;
70725;SDS011;58304;53.104;6.022;2022-08-19T09:06:12;14.48;;;11.07;;
70725;SDS011;58304;53.104;6.022;2022-08-19T09:14:22;16.10;;;12.75;;
70725;SDS011;58304;53.104;6.022;2022-08-19T09:17:08;17.33;;;13.25;;
70725;SDS011;58304;53.104;6.022;2022-08-19T09:19:52;14.88;;;11.65;;
70725;SDS011;58304;53.104;6.022;2022-08-19T09:22:21;15.63;;;11.80;;
70725;SDS011;58304;53.104;6.022;2022-08-19T09:24:51;14.35;;;10.23;;
70725;SDS011;58304;53.104;6.022;2022-08-19T09:27:17;14.82;;;11.40;;
70725;SDS011;58304;53.104;6.022;2022-08-19T09:29:44;13.18;;;10.10;;
70725;SDS011;58304;53.104;6.022;2022-08-19T09:32:10;13.65;;;10.95;;
70725;SDS011;58304;53.104;6.022;2022-08-19T09:34:35;14.85;;;9.80;;
70725;SDS011;58304;53.104;6.022;2022-08-19T09:37:01;14.00;;;10.38;;
70725;SDS011;58304;53.104;6.022;2022-08-19T09:39:28;14.65;;;10.65;;
70725;SDS011;58304;53.104;6.022;2022-08-19T09:41:55;12.10;;;9.32;;
70725;SDS011;58304;53.104;6.022;2022-08-19T09:44:21;15.70;;;9.20;;
70725;SDS011;58304;53.104;6.022;2022-08-19T09:46:46;11.50;;;8.43;;
70725;SDS011;58304;53.104;6.022;2022-08-19T09:49:13;12.65;;;8.63;;
70725;SDS011;58304;53.104;6.022;2022-08-19T09:51:39;11.23;;;8.25;;
70725;SDS011;58304;53.104;6.022;2022-08-19T09:54:05;13.40;;;10.00;;
70725;SDS011;58304;53.104;6.022;2022-08-19T09:56:30;15.02;;;8.57;;
70725;SDS011;58304;53.104;6.022;2022-08-19T09:58:58;12.05;;;8.10;;
70725;SDS011;58304;53.104;6.022;2022-08-19T10:01:25;12.80;;;8.13;;
70725;SDS011;58304;53.104;6.022;2022-08-19T10:03:53;12.63;;;9.45;;
70725;SDS011;58304;53.104;6.022;2022-08-19T10:06:22;12.65;;;9.50;;
70725;SDS011;58304;53.104;6.022;2022-08-19T10:08:48;12.95;;;9.23;;
70725;SDS011;58304;53.104;6.022;2022-08-19T10:11:17;13.88;;;9.60;;
70725;SDS011;58304;53.104;6.022;2022-08-19T10:13:43;13.65;;;8.55;;
70725;SDS011;58304;53.104;6.022;2022-08-19T10:16:11;11.43;;;7.63;;
70725;SDS011;58304;53.104;6.022;2022-08-19T10:18:41;10.68;;;6.88;;
70725;SDS011;58304;53.104;6.022;2022-08-19T10:21:22;12.45;;;7.93;;
70725;SDS011;58304;53.104;6.022;2022-08-19T10:23:53;14.10;;;8.88;;
70725;SDS011;58304;53.104;6.022;2022-08-19T10:26:24;11.02;;;7.05;;
70725;SDS011;58304;53.104;6.022;2022-08-19T10:28:55;10.65;;;7.15;;
70725;SDS011;58304;53.104;6.022;2022-08-19T10:31:22;10.98;;;6.75;;
70725;SDS011;58304;53.104;6.022;2022-08-19T10:33:49;14.52;;;8.85;;
70725;SDS011;58304;53.104;6.022;2022-08-19T10:36:20;12.25;;;7.63;;
70725;SDS011;58304;53.104;6.022;2022-08-19T10:38:49;10.10;;;6.90;;
70725;SDS011;58304;53.104;6.022;2022-08-19T10:41:17;11.18;;;7.47;;
70725;SDS011;58304;53.104;6.022;2022-08-19T10:43:44;10.20;;;6.13;;
70725;SDS011;58304;53.104;6.022;2022-08-19T10:46:12;11.20;;;7.13;;
70725;SDS011;58304;53.104;6.022;2022-08-19T10:48:39;14.52;;;6.82;;
70725;SDS011;58304;53.104;6.022;2022-08-19T10:51:05;9.55;;;6.28;;
70725;SDS011;58304;53.104;6.022;2022-08-19T10:53:50;10.25;;;6.93;;
70725;SDS011;58304;53.104;6.022;2022-08-19T10:56:16;10.30;;;7.22;;
70725;SDS011;58304;53.104;6.022;2022-08-19T10:59:01;10.85;;;7.03;;
70725;SDS011;58304;53.104;6.022;2022-08-19T11:01:28;11.25;;;7.22;;
70725;SDS011;58304;53.104;6.022;2022-08-19T11:03:55;10.68;;;7.30;;
70725;SDS011;58304;53.104;6.022;2022-08-19T11:06:22;12.77;;;8.43;;
70725;SDS011;58304;53.104;6.022;2022-08-19T11:08:50;11.23;;;8.35;;
70725;SDS011;58304;53.104;6.022;2022-08-19T11:11:16;14.20;;;9.23;;
70725;SDS011;58304;53.104;6.022;2022-08-19T11:13:42;12.95;;;8.18;;
70725;SDS011;58304;53.104;6.022;2022-08-19T11:16:13;11.70;;;7.90;;
70725;SDS011;58304;53.104;6.022;2022-08-19T11:18:43;13.40;;;8.02;;
70725;SDS011;58304;53.104;6.022;2022-08-19T11:21:14;16.30;;;8.50;;
70725;SDS011;58304;53.104;6.022;2022-08-19T11:23:42;9.82;;;7.30;;
70725;SDS011;58304;53.104;6.022;2022-08-19T11:26:09;12.88;;;7.38;;
70725;SDS011;58304;53.104;6.022;2022-08-19T11:28:34;10.73;;;7.28;;
70725;SDS011;58304;53.104;6.022;2022-08-19T11:31:00;13.40;;;8.57;;
70725;SDS011;58304;53.104;6.022;2022-08-19T11:33:28;13.02;;;7.97;;
70725;SDS011;58304;53.104;6.022;2022-08-19T11:35:56;12.13;;;8.55;;
70725;SDS011;58304;53.104;6.022;2022-08-19T11:38:24;14.82;;;9.38;;
70725;SDS011;58304;53.104;6.022;2022-08-19T11:40:54;19.15;;;11.60;;
70725;SDS011;58304;53.104;6.022;2022-08-19T11:43:24;18.23;;;12.73;;
70725;SDS011;58304;53.104;6.022;2022-08-19T11:45:51;20.70;;;11.38;;
70725;SDS011;58304;53.104;6.022;2022-08-19T11:48:17;18.17;;;11.80;;
70725;SDS011;58304;53.104;6.022;2022-08-19T11:50:47;19.83;;;12.13;;
70725;SDS011;58304;53.104;6.022;2022-08-19T11:53:14;23.27;;;15.35;;
70725;SDS011;58304;53.104;6.022;2022-08-19T11:55:41;21.52;;;13.75;;
70725;SDS011;58304;53.104;6.022;2022-08-19T11:58:07;19.50;;;13.25;;
70725;SDS011;58304;53.104;6.022;2022-08-19T12:00:33;18.63;;;12.10;;
70725;SDS011;58304;53.104;6.022;2022-08-19T12:03:01;19.73;;;13.52;;
70725;SDS011;58304;53.104;6.022;2022-08-19T12:05:27;16.50;;;11.07;;
70725;SDS011;58304;53.104;6.022;2022-08-19T12:07:52;19.30;;;11.35;;
70725;SDS011;58304;53.104;6.022;2022-08-19T12:10:19;18.33;;;11.07;;
70725;SDS011;58304;53.104;6.022;2022-08-19T12:12:45;18.02;;;10.85;;
70725;SDS011;58304;53.104;6.022;2022-08-19T12:15:11;16.50;;;9.40;;
70725;SDS011;58304;53.104;6.022;2022-08-19T12:17:37;20.83;;;9.00;;
70725;SDS011;58304;53.104;6.022;2022-08-19T12:20:04;20.90;;;12.48;;
70725;SDS011;58304;53.104;6.022;2022-08-19T12:22:30;20.08;;;12.40;;
70725;SDS011;58304;53.104;6.022;2022-08-19T12:24:56;22.45;;;12.88;;
70725;SDS011;58304;53.104;6.022;2022-08-19T12:27:22;18.30;;;11.00;;
70725;SDS011;58304;53.104;6.022;2022-08-19T12:29:47;13.80;;;9.88;;
70725;SDS011;58304;53.104;6.022;2022-08-19T12:32:13;17.67;;;10.88;;
70725;SDS011;58304;53.104;6.022;2022-08-19T12:34:40;18.38;;;12.50;;
70725;SDS011;58304;53.104;6.022;2022-08-19T12:37:06;20.65;;;11.48;;
70725;SDS011;58304;53.104;6.022;2022-08-19T12:39:36;21.75;;;13.02;;
70725;SDS011;58304;53.104;6.022;2022-08-19T12:42:06;25.13;;;14.25;;
70725;SDS011;58304;53.104;6.022;2022-08-19T12:44:34;20.02;;;11.32;;
70725;SDS011;58304;53.104;6.022;2022-08-19T12:47:01;14.07;;;8.63;;
70725;SDS011;58304;53.104;6.022;2022-08-19T12:49:28;15.77;;;10.30;;
70725;SDS011;58304;53.104;6.022;2022-08-19T12:51:54;16.75;;;10.88;;
70725;SDS011;58304;53.104;6.022;2022-08-19T12:54:20;15.52;;;10.35;;
70725;SDS011;58304;53.104;6.022;2022-08-19T12:56:45;16.98;;;10.63;;
70725;SDS011;58304;53.104;6.022;2022-08-19T12:59:11;18.15;;;10.68;;
70725;SDS011;58304;53.104;6.022;2022-08-19T13:01:37;19.02;;;10.68;;
70725;SDS011;58304;53.104;6.022;2022-08-19T13:04:03;17.17;;;10.90;;
70725;SDS011;58304;53.104;6.022;2022-08-19T13:06:28;16.98;;;10.23;;
70725;SDS011;58304;53.104;6.022;2022-08-19T13:08:55;20.38;;;10.05;;
70725;SDS011;58304;53.104;6.022;2022-08-19T13:11:21;17.90;;;9.48;;
70725;SDS011;58304;53.104;6.022;2022-08-19T13:13:49;16.40;;;10.13;;
70725;SDS011;58304;53.104;6.022;2022-08-19T13:16:16;19.63;;;11.52;;
70725;SDS011;58304;53.104;6.022;2022-08-19T13:18:44;17.88;;;12.05;;
70725;SDS011;58304;53.104;6.022;2022-08-19T13:21:12;22.13;;;13.55;;
70725;SDS011;58304;53.104;6.022;2022-08-19T13:23:38;20.63;;;13.73;;
70725;SDS011;58304;53.104;6.022;2022-08-19T13:26:05;13.93;;;9.32;;
70725;SDS011;58304;53.104;6.022;2022-08-19T13:28:32;13.70;;;7.22;;
70725;SDS011;58304;53.104;6.022;2022-08-19T13:31:18;14.77;;;8.05;;
70725;SDS011;58304;53.104;6.022;2022-08-19T13:34:03;13.05;;;8.55;;
70725;SDS011;58304;53.104;6.022;2022-08-19T13:36:31;16.35;;;9.27;;
70725;SDS011;58304;53.104;6.022;2022-08-19T13:38:57;14.00;;;8.40;;
70725;SDS011;58304;53.104;6.022;2022-08-19T13:41:23;12.02;;;8.70;;
70725;SDS011;58304;53.104;6.022;2022-08-19T13:43:49;14.40;;;8.25;;
70725;SDS011;58304;53.104;6.022;2022-08-19T13:46:15;8.57;;;6.07;;
70725;SDS011;58304;53.104;6.022;2022-08-19T13:48:41;8.65;;;5.57;;
70725;SDS011;58304;53.104;6.022;2022-08-19T13:51:07;8.88;;;4.80;;
70725;SDS011;58304;53.104;6.022;2022-08-19T13:53:38;6.45;;;4.40;;
70725;SDS011;58304;53.104;6.022;2022-08-19T13:56:09;6.35;;;4.55;;
70725;SDS011;58304;53.104;6.022;2022-08-19T13:58:37;5.90;;;4.40;;
70725;SDS011;58304;53.104;6.022;2022-08-19T14:01:04;7.68;;;5.00;;
70725;SDS011;58304;53.104;6.022;2022-08-19T14:03:30;8.43;;;4.88;;
70725;SDS011;58304;53.104;6.022;2022-08-19T14:05:57;7.68;;;5.30;;
70725;SDS011;58304;53.104;6.022;2022-08-19T14:08:23;7.63;;;5.28;;
70725;SDS011;58304;53.104;6.022;2022-08-19T14:10:49;9.85;;;6.22;;
70725;SDS011;58304;53.104;6.022;2022-08-19T14:13:16;12.15;;;6.22;;
70725;SDS011;58304;53.104;6.022;2022-08-19T14:15:43;8.80;;;5.93;;
70725;SDS011;58304;53.104;6.022;2022-08-19T14:18:09;8.48;;;6.22;;
70725;SDS011;58304;53.104;6.022;2022-08-19T14:20:36;11.13;;;6.63;;
70725;SDS011;58304;53.104;6.022;2022-08-19T14:23:02;11.80;;;6.60;;
70725;SDS011;58304;53.104;6.022;2022-08-19T14:25:30;9.30;;;6.20;;
70725;SDS011;58304;53.104;6.022;2022-08-19T14:27:56;9.65;;;6.18;;
70725;SDS011;58304;53.104;6.022;2022-08-19T14:30:23;12.27;;;6.03;;
70725;SDS011;58304;53.104;6.022;2022-08-19T14:32:53;9.32;;;5.60;;
70725;SDS011;58304;53.104;6.022;2022-08-19T14:35:19;11.88;;;6.13;;
70725;SDS011;58304;53.104;6.022;2022-08-19T14:37:47;10.52;;;6.65;;
70725;SDS011;58304;53.104;6.022;2022-08-19T14:40:14;12.73;;;8.05;;
70725;SDS011;58304;53.104;6.022;2022-08-19T14:42:42;13.52;;;8.13;;
70725;SDS011;58304;53.104;6.022;2022-08-19T14:45:09;14.75;;;8.75;;
70725;SDS011;58304;53.104;6.022;2022-08-19T14:47:35;12.05;;;8.07;;
70725;SDS011;58304;53.104;6.022;2022-08-19T14:50:01;12.95;;;7.93;;
70725;SDS011;58304;53.104;6.022;2022-08-19T14:52:27;16.58;;;8.60;;
70725;SDS011;58304;53.104;6.022;2022-08-19T14:54:53;13.23;;;7.93;;
70725;SDS011;58304;53.104;6.022;2022-08-19T14:57:18;13.60;;;7.70;;